^^
TXWeather Station Historical Data
Daily Summary for March 08, 2022 Units:  English    Metric   Both
Daily Weekly Monthly Yearly Custom
  High: Low: Average:
Temperature: 50.0 °F 43.0 °F 45.1 °F
Dew Point: 43.0 °F 38.0 °F 40.6 °F
Humidity: 91% 65% 85%
Wind Speed: 19mph 4mph 9.8mph
Wind Gust: 19mph - -
Wind- - SE
Pressure: 30.2 in 30.0 in -
Precipitation: 0.370 in    
Historical Graphs
 
 
Tabular Data for March 08, 2022
Time Temperature Dew Point Pressure Wind Wind Speed Wind Gust Humidity Rainfall Rate (Hourly) solar
00:04 50.0 °F 38.0 °F 30.2 in NNE 14 mph 16 mph 65% 0.000 in 0.00 W/m2
00:09 50.0 °F 38.0 °F 30.2 in NNE 16 mph 16 mph 65% 0.000 in 0.00 W/m2
00:14 50.0 °F 38.0 °F 30.2 in NNE 15 mph 15 mph 65% 0.000 in 0.00 W/m2
00:19 50.0 °F 38.0 °F 30.2 in NNE 11 mph 11 mph 65% 0.000 in 0.00 W/m2
00:24 50.0 °F 38.0 °F 30.2 in NNE 11 mph 11 mph 65% 0.000 in 0.00 W/m2
00:29 50.0 °F 38.0 °F 30.2 in NNE 17 mph 17 mph 65% 0.000 in 0.00 W/m2
00:34 50.0 °F 38.0 °F 30.2 in NNE 12 mph 17 mph 65% 0.000 in 0.00 W/m2
00:39 50.0 °F 38.0 °F 30.2 in North 17 mph 17 mph 65% 0.000 in 0.00 W/m2
00:44 50.0 °F 38.0 °F 30.2 in North 14 mph 15 mph 65% 0.000 in 0.00 W/m2
00:49 50.0 °F 38.0 °F 30.2 in NNE 15 mph 15 mph 65% 0.000 in 0.00 W/m2
00:54 50.0 °F 38.0 °F 30.2 in NNE 17 mph 17 mph 65% 0.000 in 0.00 W/m2
00:59 50.0 °F 38.0 °F 30.2 in North 13 mph 15 mph 65% 0.000 in 0.00 W/m2
01:04 50.0 °F 38.0 °F 30.2 in NNE 15 mph 15 mph 65% 0.000 in 0.00 W/m2
01:09 50.0 °F 39.0 °F 30.2 in NNE 12 mph 15 mph 66% 0.000 in 0.00 W/m2
01:14 50.0 °F 39.0 °F 30.2 in North 13 mph 15 mph 66% 0.000 in 0.00 W/m2
01:19 50.0 °F 39.0 °F 30.2 in NNE 12 mph 15 mph 66% 0.000 in 0.00 W/m2
01:24 50.0 °F 39.0 °F 30.2 in NNE 14 mph 15 mph 66% 0.000 in 0.00 W/m2
01:29 50.0 °F 39.0 °F 30.2 in NNE 13 mph 15 mph 66% 0.000 in 0.00 W/m2
01:34 50.0 °F 39.0 °F 30.2 in NNE 9 mph 9 mph 66% 0.000 in 0.00 W/m2
01:39 50.0 °F 39.0 °F 30.1 in North 14 mph 14 mph 67% 0.000 in 0.00 W/m2
01:44 50.0 °F 39.0 °F 30.1 in North 10 mph 14 mph 67% 0.000 in 0.00 W/m2
01:49 50.0 °F 39.0 °F 30.1 in NNE 15 mph 16 mph 67% 0.000 in 0.00 W/m2
01:54 49.0 °F 39.0 °F 30.1 in NNE 15 mph 15 mph 67% 0.000 in 0.00 W/m2
01:59 49.0 °F 39.0 °F 30.1 in North 11 mph 13 mph 67% 0.000 in 0.00 W/m2
02:04 49.0 °F 39.0 °F 30.1 in North 15 mph 15 mph 67% 0.000 in 0.00 W/m2
02:09 49.0 °F 39.0 °F 30.1 in NNE 19 mph 19 mph 68% 0.000 in 0.00 W/m2
02:14 49.0 °F 39.0 °F 30.1 in NNE 10 mph 12 mph 68% 0.000 in 0.00 W/m2
02:19 49.0 °F 39.0 °F 30.1 in North 14 mph 14 mph 68% 0.000 in 0.00 W/m2
02:24 49.0 °F 39.0 °F 30.1 in NNE 16 mph 19 mph 68% 0.000 in 0.00 W/m2
02:29 49.0 °F 39.0 °F 30.1 in NNE 12 mph 19 mph 68% 0.000 in 0.00 W/m2
02:34 49.0 °F 39.0 °F 30.1 in NNE 11 mph 13 mph 68% 0.000 in 0.00 W/m2
02:39 49.0 °F 39.0 °F 30.1 in NNE 12 mph 13 mph 69% 0.000 in 0.00 W/m2
02:44 49.0 °F 39.0 °F 30.1 in NNE 14 mph 14 mph 69% 0.000 in 0.00 W/m2
02:49 49.0 °F 39.0 °F 30.1 in NNE 12 mph 18 mph 69% 0.000 in 0.00 W/m2
02:54 49.0 °F 39.0 °F 30.1 in NNE 16 mph 18 mph 69% 0.000 in 0.00 W/m2
02:59 48.0 °F 39.0 °F 30.1 in NNE 12 mph 14 mph 69% 0.000 in 0.00 W/m2
03:04 48.0 °F 39.0 °F 30.1 in NNE 14 mph 16 mph 69% 0.000 in 0.00 W/m2
03:09 48.0 °F 39.0 °F 30.1 in NNE 14 mph 17 mph 69% 0.000 in 0.00 W/m2
03:14 48.0 °F 39.0 °F 30.1 in NNE 14 mph 17 mph 69% 0.000 in 0.00 W/m2
03:19 48.0 °F 39.0 °F 30.1 in NNE 11 mph 16 mph 69% 0.000 in 0.00 W/m2
03:24 48.0 °F 39.0 °F 30.1 in NNE 17 mph 19 mph 69% 0.000 in 0.00 W/m2
03:29 48.0 °F 39.0 °F 30.1 in NNE 14 mph 19 mph 69% 0.000 in 0.00 W/m2
03:34 48.0 °F 39.0 °F 30.1 in NNE 13 mph 14 mph 69% 0.000 in 0.00 W/m2
03:39 48.0 °F 39.0 °F 30.1 in NNE 12 mph 12 mph 69% 0.000 in 0.00 W/m2
03:44 48.0 °F 38.0 °F 30.1 in NNE 11 mph 12 mph 69% 0.000 in 0.00 W/m2
03:49 48.0 °F 39.0 °F 30.1 in NNE 11 mph 11 mph 69% 0.000 in 0.00 W/m2
03:54 48.0 °F 39.0 °F 30.1 in NNE 9 mph 11 mph 69% 0.000 in 0.00 W/m2
03:59 48.0 °F 39.0 °F 30.1 in NNE 13 mph 13 mph 69% 0.000 in 0.00 W/m2
04:04 48.0 °F 39.0 °F 30.1 in NNE 13 mph 13 mph 69% 0.000 in 0.00 W/m2
04:09 48.0 °F 39.0 °F 30.1 in NNE 8 mph 9 mph 69% 0.000 in 0.00 W/m2
04:14 48.0 °F 39.0 °F 30.1 in NNE 8 mph 10 mph 69% 0.000 in 0.00 W/m2
04:19 48.0 °F 39.0 °F 30.1 in North 8 mph 8 mph 71% 0.000 in 0.00 W/m2
04:24 48.0 °F 39.0 °F 30.1 in NNE 10 mph 10 mph 71% 0.000 in 0.00 W/m2
04:29 48.0 °F 39.0 °F 30.1 in North 6 mph 10 mph 71% 0.000 in 0.00 W/m2
04:34 48.0 °F 39.0 °F 30.1 in North 10 mph 10 mph 72% 0.000 in 0.00 W/m2
04:39 48.0 °F 40.0 °F 30.1 in NNE 10 mph 10 mph 74% 0.010 in 0.00 W/m2
04:44 48.0 °F 40.0 °F 30.1 in North 5 mph 5 mph 75% 0.020 in 0.00 W/m2
04:49 47.0 °F 40.0 °F 30.1 in NNW 8 mph 9 mph 77% 0.020 in 0.00 W/m2
04:54 47.0 °F 40.0 °F 30.1 in North 8 mph 8 mph 78% 0.030 in 0.00 W/m2
04:59 46.0 °F 40.0 °F 30.1 in NNE 10 mph 10 mph 79% 0.030 in 0.00 W/m2
05:04 46.0 °F 40.0 °F 30.1 in NNE 11 mph 11 mph 80% 0.040 in 0.00 W/m2
05:09 45.0 °F 40.0 °F 30.1 in North 9 mph 11 mph 81% 0.040 in 0.00 W/m2
05:14 45.0 °F 40.0 °F 30.1 in North 9 mph 9 mph 82% 0.050 in 0.00 W/m2
05:19 45.0 °F 40.0 °F 30.1 in North 8 mph 9 mph 83% 0.050 in 0.00 W/m2
05:24 45.0 °F 40.0 °F 30.1 in NNE 9 mph 9 mph 83% 0.060 in 0.00 W/m2
05:29 45.0 °F 41.0 °F 30.1 in NNE 7 mph 8 mph 84% 0.060 in 0.00 W/m2
05:34 45.0 °F 41.0 °F 30.1 in NNE 10 mph 10 mph 84% 0.060 in 0.00 W/m2
05:39 45.0 °F 41.0 °F 30.1 in NNE 11 mph 13 mph 84% 0.060 in 0.00 W/m2
05:44 45.0 °F 41.0 °F 30.1 in NNE 11 mph 13 mph 85% 0.060 in 0.00 W/m2
05:49 45.0 °F 41.0 °F 30.1 in North 10 mph 11 mph 85% 0.050 in 0.00 W/m2
05:54 44.0 °F 40.0 °F 30.1 in NNE 11 mph 11 mph 85% 0.050 in 0.00 W/m2
05:59 44.0 °F 41.0 °F 30.1 in NNE 14 mph 14 mph 86% 0.050 in 0.00 W/m2
06:04 44.0 °F 40.0 °F 30.1 in North 11 mph 14 mph 86% 0.050 in 0.00 W/m2
06:09 44.0 °F 40.0 °F 30.1 in NNE 9 mph 10 mph 86% 0.040 in 0.00 W/m2
06:14 44.0 °F 40.0 °F 30.1 in NNE 7 mph 10 mph 86% 0.050 in 0.00 W/m2
06:19 44.0 °F 40.0 °F 30.1 in NNE 7 mph 7 mph 86% 0.040 in 0.00 W/m2
06:24 44.0 °F 41.0 °F 30.1 in NW 5 mph 7 mph 86% 0.040 in 0.00 W/m2
06:29 44.0 °F 40.0 °F 30.1 in SSW 5 mph 6 mph 86% 0.030 in 0.00 W/m2
06:34 44.0 °F 41.0 °F 30.1 in NNE 11 mph 12 mph 87% 0.040 in 0.00 W/m2
06:39 44.0 °F 41.0 °F 30.1 in NNE 9 mph 12 mph 87% 0.040 in 0.00 W/m2
06:44 44.0 °F 41.0 °F 30.1 in NNE 7 mph 10 mph 87% 0.030 in 0.00 W/m2
06:49 44.0 °F 41.0 °F 30.1 in NW 9 mph 9 mph 87% 0.040 in 0.00 W/m2
06:54 44.0 °F 41.0 °F 30.1 in West 6 mph 9 mph 87% 0.040 in 0.00 W/m2
06:59 44.0 °F 41.0 °F 30.1 in NNE 6 mph 6 mph 87% 0.030 in 0.00 W/m2
07:04 44.0 °F 41.0 °F 30.1 in North 4 mph 5 mph 87% 0.030 in 0.00 W/m2
07:09 44.0 °F 41.0 °F 30.1 in North 5 mph 6 mph 87% 0.040 in 9.00 W/m2
07:14 44.0 °F 41.0 °F 30.1 in NNW 6 mph 7 mph 87% 0.040 in 14.00 W/m2
07:19 44.0 °F 41.0 °F 30.1 in NNE 8 mph 8 mph 88% 0.030 in 16.00 W/m2
07:24 44.0 °F 41.0 °F 30.1 in North 4 mph 5 mph 88% 0.030 in 11.00 W/m2
07:29 45.0 °F 41.0 °F 30.1 in NW 5 mph 5 mph 88% 0.040 in 11.00 W/m2
07:34 45.0 °F 41.0 °F 30.1 in NW 6 mph 8 mph 88% 0.030 in 11.00 W/m2
07:39 44.0 °F 41.0 °F 30.1 in NNW 6 mph 8 mph 88% 0.030 in 5.00 W/m2
07:44 44.0 °F 41.0 °F 30.1 in NNW 4 mph 6 mph 88% 0.030 in 7.00 W/m2
07:49 44.0 °F 41.0 °F 30.1 in North 6 mph 8 mph 88% 0.040 in 16.00 W/m2
07:54 45.0 °F 41.0 °F 30.1 in North 6 mph 8 mph 88% 0.030 in 21.00 W/m2
07:59 45.0 °F 41.0 °F 30.1 in NNW 6 mph 9 mph 88% 0.030 in 18.00 W/m2
08:04 45.0 °F 41.0 °F 30.1 in NNE 8 mph 9 mph 88% 0.030 in 25.00 W/m2
08:09 44.0 °F 41.0 °F 30.1 in North 8 mph 8 mph 88% 0.040 in 28.00 W/m2
08:14 44.0 °F 41.0 °F 30.1 in North 6 mph 8 mph 88% 0.030 in 32.00 W/m2
08:19 44.0 °F 41.0 °F 30.1 in North 9 mph 10 mph 89% 0.030 in 28.00 W/m2
08:24 44.0 °F 41.0 °F 30.1 in NNE 8 mph 10 mph 89% 0.030 in 30.00 W/m2
08:29 44.0 °F 41.0 °F 30.1 in NNE 8 mph 10 mph 89% 0.030 in 49.00 W/m2
08:34 44.0 °F 41.0 °F 30.1 in NNE 12 mph 12 mph 89% 0.030 in 49.00 W/m2
08:39 44.0 °F 41.0 °F 30.1 in NNE 8 mph 8 mph 89% 0.030 in 46.00 W/m2
08:44 44.0 °F 41.0 °F 30.1 in NNE 9 mph 9 mph 89% 0.030 in 53.00 W/m2
08:49 44.0 °F 41.0 °F 30.1 in North 8 mph 8 mph 89% 0.030 in 53.00 W/m2
08:54 44.0 °F 41.0 °F 30.1 in NNE 7 mph 8 mph 89% 0.030 in 58.00 W/m2
08:59 44.0 °F 41.0 °F 30.1 in NNE 6 mph 9 mph 89% 0.030 in 69.00 W/m2
09:04 44.0 °F 41.0 °F 30.1 in NNE 8 mph 9 mph 89% 0.030 in 49.00 W/m2
09:09 44.0 °F 41.0 °F 30.1 in NNE 9 mph 9 mph 89% 0.030 in 35.00 W/m2
09:14 44.0 °F 41.0 °F 30.1 in NNE 10 mph 11 mph 89% 0.030 in 33.00 W/m2
09:19 44.0 °F 41.0 °F 30.1 in NNW 6 mph 6 mph 89% 0.030 in 25.00 W/m2
09:24 44.0 °F 41.0 °F 30.1 in NNW 8 mph 8 mph 89% 0.030 in 25.00 W/m2
09:29 44.0 °F 41.0 °F 30.1 in North 4 mph 6 mph 89% 0.030 in 28.00 W/m2
09:34 44.0 °F 41.0 °F 30.1 in NNE 10 mph 10 mph 89% 0.020 in 39.00 W/m2
09:39 44.0 °F 41.0 °F 30.1 in North 7 mph 8 mph 89% 0.030 in 42.00 W/m2
09:44 44.0 °F 41.0 °F 30.1 in North 7 mph 8 mph 89% 0.030 in 46.00 W/m2
09:49 44.0 °F 41.0 °F 30.1 in North 6 mph 8 mph 89% 0.030 in 54.00 W/m2
09:54 45.0 °F 42.0 °F 30.1 in NNE 6 mph 8 mph 89% 0.030 in 56.00 W/m2
09:59 45.0 °F 42.0 °F 30.1 in North 6 mph 8 mph 89% 0.020 in 46.00 W/m2
10:04 45.0 °F 42.0 °F 30.1 in North 5 mph 8 mph 90% 0.030 in 58.00 W/m2
10:09 45.0 °F 42.0 °F 30.1 in North 7 mph 7 mph 90% 0.030 in 56.00 W/m2
10:14 45.0 °F 42.0 °F 30.1 in North 9 mph 9 mph 90% 0.030 in 86.00 W/m2
10:19 45.0 °F 42.0 °F 30.1 in NNE 9 mph 9 mph 90% 0.020 in 84.00 W/m2
10:24 45.0 °F 42.0 °F 30.1 in NNE 7 mph 8 mph 90% 0.020 in 56.00 W/m2
10:29 45.0 °F 42.0 °F 30.1 in NNE 6 mph 6 mph 90% 0.030 in 62.00 W/m2
10:34 45.0 °F 42.0 °F 30.1 in NNE 6 mph 8 mph 90% 0.030 in 58.00 W/m2
10:39 45.0 °F 42.0 °F 30.1 in North 10 mph 10 mph 90% 0.030 in 60.00 W/m2
10:44 45.0 °F 42.0 °F 30.1 in North 8 mph 8 mph 90% 0.020 in 58.00 W/m2
10:49 45.0 °F 42.0 °F 30.1 in North 8 mph 9 mph 90% 0.020 in 47.00 W/m2
10:54 45.0 °F 42.0 °F 30.1 in North 8 mph 9 mph 90% 0.030 in 56.00 W/m2
10:59 45.0 °F 42.0 °F 30.1 in North 9 mph 9 mph 90% 0.030 in 60.00 W/m2
11:04 45.0 °F 42.0 °F 30.1 in NNE 9 mph 10 mph 90% 0.030 in 76.00 W/m2
11:09 45.0 °F 42.0 °F 30.1 in North 8 mph 10 mph 90% 0.020 in 90.00 W/m2
11:14 45.0 °F 42.0 °F 30.1 in North 8 mph 8 mph 90% 0.020 in 91.00 W/m2
11:19 45.0 °F 42.0 °F 30.1 in North 9 mph 9 mph 90% 0.030 in 86.00 W/m2
11:24 45.0 °F 42.0 °F 30.1 in North 6 mph 8 mph 90% 0.030 in 81.00 W/m2
11:29 45.0 °F 42.0 °F 30.1 in North 5 mph 7 mph 90% 0.030 in 83.00 W/m2
11:34 45.0 °F 42.0 °F 30.1 in NNW 7 mph 7 mph 90% 0.020 in 56.00 W/m2
11:39 45.0 °F 42.0 °F 30.1 in NNW 6 mph 9 mph 90% 0.020 in 72.00 W/m2
11:44 45.0 °F 42.0 °F 30.1 in North 7 mph 7 mph 90% 0.020 in 81.00 W/m2
11:49 45.0 °F 42.0 °F 30.1 in NNW 5 mph 7 mph 90% 0.030 in 74.00 W/m2
11:54 45.0 °F 43.0 °F 30.1 in North 5 mph 7 mph 90% 0.030 in 86.00 W/m2
11:59 45.0 °F 43.0 °F 30.1 in NNW 5 mph 7 mph 90% 0.020 in 56.00 W/m2
12:04 45.0 °F 43.0 °F 30.1 in NNW 8 mph 9 mph 90% 0.020 in 83.00 W/m2
12:09 45.0 °F 42.0 °F 30.1 in NW 7 mph 7 mph 90% 0.020 in 90.00 W/m2
12:14 45.0 °F 42.0 °F 30.1 in NW 7 mph 8 mph 90% 0.030 in 81.00 W/m2
12:19 45.0 °F 42.0 °F 30.1 in NW 10 mph 10 mph 90% 0.030 in 53.00 W/m2
12:24 45.0 °F 42.0 °F 30.1 in NW 9 mph 9 mph 90% 0.020 in 76.00 W/m2
12:29 45.0 °F 42.0 °F 30.1 in NW 7 mph 8 mph 90% 0.020 in 76.00 W/m2
12:34 45.0 °F 42.0 °F 30.1 in NNW 9 mph 9 mph 90% 0.020 in 76.00 W/m2
12:39 45.0 °F 42.0 °F 30.1 in NNW 9 mph 9 mph 90% 0.030 in 70.00 W/m2
12:44 45.0 °F 42.0 °F 30.1 in NNW 9 mph 9 mph 90% 0.030 in 67.00 W/m2
12:49 45.0 °F 42.0 °F 30.1 in North 8 mph 9 mph 90% 0.020 in 53.00 W/m2
12:54 45.0 °F 42.0 °F 30.0 in NNE 8 mph 8 mph 90% 0.020 in 49.00 W/m2
12:59 45.0 °F 42.0 °F 30.0 in North 9 mph 9 mph 90% 0.020 in 42.00 W/m2
13:04 44.0 °F 42.0 °F 30.0 in North 5 mph 5 mph 90% 0.030 in 40.00 W/m2
13:09 45.0 °F 42.0 °F 30.0 in North 6 mph 6 mph 90% 0.030 in 65.00 W/m2
13:14 45.0 °F 42.0 °F 30.0 in North 7 mph 9 mph 90% 0.030 in 70.00 W/m2
13:19 45.0 °F 42.0 °F 30.0 in NNE 8 mph 9 mph 90% 0.020 in 70.00 W/m2
13:24 45.0 °F 42.0 °F 30.0 in North 5 mph 8 mph 90% 0.020 in 74.00 W/m2
13:29 45.0 °F 42.0 °F 30.0 in North 6 mph 8 mph 90% 0.020 in 81.00 W/m2
13:34 45.0 °F 42.0 °F 30.0 in North 7 mph 7 mph 90% 0.030 in 81.00 W/m2
13:39 45.0 °F 42.0 °F 30.0 in NNW 8 mph 9 mph 90% 0.030 in 70.00 W/m2
13:44 45.0 °F 42.0 °F 30.0 in NNW 9 mph 10 mph 90% 0.020 in 91.00 W/m2
13:49 45.0 °F 42.0 °F 30.0 in NNW 9 mph 9 mph 90% 0.020 in 93.00 W/m2
13:54 45.0 °F 42.0 °F 30.0 in North 9 mph 9 mph 90% 0.020 in 84.00 W/m2
13:59 45.0 °F 42.0 °F 30.0 in North 6 mph 9 mph 90% 0.030 in 102.00 W/m2
14:04 45.0 °F 43.0 °F 30.0 in NNW 8 mph 8 mph 91% 0.030 in 84.00 W/m2
14:09 45.0 °F 42.0 °F 30.0 in NNW 9 mph 11 mph 90% 0.020 in 91.00 W/m2
14:14 45.0 °F 42.0 °F 30.0 in NNW 8 mph 8 mph 90% 0.020 in 109.00 W/m2
14:19 45.0 °F 42.0 °F 30.0 in North 7 mph 7 mph 90% 0.020 in 95.00 W/m2
14:24 45.0 °F 43.0 °F 30.0 in North 6 mph 7 mph 91% 0.020 in 84.00 W/m2
14:29 45.0 °F 43.0 °F 30.0 in NNW 10 mph 11 mph 91% 0.030 in 104.00 W/m2
14:34 45.0 °F 43.0 °F 30.0 in NNW 9 mph 9 mph 90% 0.030 in 104.00 W/m2
14:39 45.0 °F 43.0 °F 30.0 in NNW 10 mph 10 mph 90% 0.020 in 98.00 W/m2
14:44 45.0 °F 42.0 °F 30.0 in NW 10 mph 10 mph 90% 0.020 in 90.00 W/m2
14:49 45.0 °F 42.0 °F 30.0 in NNW 10 mph 11 mph 90% 0.020 in 79.00 W/m2
14:54 45.0 °F 42.0 °F 30.0 in NW 10 mph 12 mph 90% 0.020 in 128.00 W/m2
14:59 44.0 °F 42.0 °F 30.0 in NW 11 mph 12 mph 90% 0.020 in 125.00 W/m2
15:04 44.0 °F 42.0 °F 30.0 in NNW 9 mph 11 mph 90% 0.020 in 123.00 W/m2
15:09 44.0 °F 42.0 °F 30.0 in NW 10 mph 12 mph 90% 0.020 in 120.00 W/m2
15:14 44.0 °F 42.0 °F 30.0 in NNW 10 mph 12 mph 90% 0.020 in 93.00 W/m2
15:19 44.0 °F 42.0 °F 30.0 in NNW 11 mph 12 mph 90% 0.020 in 77.00 W/m2
15:24 44.0 °F 42.0 °F 30.0 in NNW 13 mph 13 mph 90% 0.020 in 62.00 W/m2
15:29 44.0 °F 42.0 °F 30.0 in NNW 11 mph 11 mph 90% 0.020 in 62.00 W/m2
15:34 44.0 °F 42.0 °F 30.0 in NNW 9 mph 11 mph 90% 0.010 in 53.00 W/m2
15:39 44.0 °F 42.0 °F 30.0 in NNW 10 mph 12 mph 90% 0.020 in 60.00 W/m2
15:44 44.0 °F 41.0 °F 30.0 in NNW 10 mph 11 mph 90% 0.020 in 51.00 W/m2
15:49 44.0 °F 42.0 °F 30.0 in NNW 10 mph 11 mph 90% 0.020 in 49.00 W/m2
15:54 44.0 °F 41.0 °F 30.0 in NNW 10 mph 13 mph 90% 0.020 in 62.00 W/m2
15:59 44.0 °F 41.0 °F 30.0 in NNW 11 mph 13 mph 90% 0.020 in 56.00 W/m2
16:04 44.0 °F 41.0 °F 30.0 in NNW 14 mph 14 mph 90% 0.020 in 53.00 W/m2
16:09 44.0 °F 41.0 °F 30.0 in NNW 10 mph 12 mph 90% 0.010 in 58.00 W/m2
16:14 44.0 °F 41.0 °F 30.0 in NNW 12 mph 12 mph 90% 0.020 in 63.00 W/m2
16:19 44.0 °F 41.0 °F 30.0 in NNW 12 mph 13 mph 90% 0.020 in 54.00 W/m2
16:24 44.0 °F 41.0 °F 30.0 in NNW 13 mph 13 mph 90% 0.020 in 54.00 W/m2
16:29 44.0 °F 41.0 °F 30.0 in North 12 mph 12 mph 90% 0.020 in 83.00 W/m2
16:34 44.0 °F 41.0 °F 30.0 in NNW 13 mph 13 mph 90% 0.020 in 67.00 W/m2
16:39 44.0 °F 41.0 °F 30.0 in NNW 11 mph 13 mph 90% 0.020 in 54.00 W/m2
16:44 44.0 °F 41.0 °F 30.0 in NNW 9 mph 11 mph 90% 0.010 in 33.00 W/m2
16:49 44.0 °F 41.0 °F 30.0 in NNW 9 mph 10 mph 90% 0.020 in 56.00 W/m2
16:54 44.0 °F 41.0 °F 30.0 in North 8 mph 10 mph 90% 0.020 in 56.00 W/m2
16:59 44.0 °F 41.0 °F 30.0 in NNW 10 mph 10 mph 90% 0.020 in 44.00 W/m2
17:04 44.0 °F 41.0 °F 30.0 in NNW 9 mph 10 mph 90% 0.020 in 60.00 W/m2
17:09 44.0 °F 41.0 °F 30.0 in North 9 mph 10 mph 90% 0.020 in 37.00 W/m2
17:14 44.0 °F 41.0 °F 30.0 in North 9 mph 12 mph 90% 0.020 in 42.00 W/m2
17:19 44.0 °F 41.0 °F 30.0 in North 11 mph 12 mph 90% 0.010 in 32.00 W/m2
17:24 44.0 °F 41.0 °F 30.0 in NNE 9 mph 10 mph 90% 0.010 in 46.00 W/m2
17:29 44.0 °F 41.0 °F 30.0 in North 12 mph 12 mph 90% 0.020 in 30.00 W/m2
17:34 44.0 °F 41.0 °F 30.0 in North 10 mph 12 mph 90% 0.020 in 40.00 W/m2
17:39 44.0 °F 41.0 °F 30.0 in NNE 6 mph 9 mph 90% 0.020 in 23.00 W/m2
17:44 44.0 °F 41.0 °F 30.0 in North 10 mph 11 mph 90% 0.020 in 14.00 W/m2
17:49 44.0 °F 41.0 °F 30.0 in North 10 mph 11 mph 90% 0.020 in 12.00 W/m2
17:54 44.0 °F 41.0 °F 30.0 in North 9 mph 10 mph 90% 0.010 in 7.00 W/m2
17:59 44.0 °F 41.0 °F 30.0 in North 10 mph 10 mph 90% 0.010 in 7.00 W/m2
18:04 44.0 °F 41.0 °F 30.0 in North 10 mph 10 mph 90% 0.010 in 7.00 W/m2
18:09 44.0 °F 41.0 °F 30.0 in North 10 mph 11 mph 90% 0.010 in 5.00 W/m2
18:14 44.0 °F 41.0 °F 30.0 in North 9 mph 9 mph 90% 0.010 in 0.00 W/m2
18:19 44.0 °F 41.0 °F 30.0 in North 10 mph 10 mph 90% 0.020 in 0.00 W/m2
18:24 44.0 °F 41.0 °F 30.0 in North 6 mph 10 mph 90% 0.020 in 0.00 W/m2
18:29 44.0 °F 41.0 °F 30.0 in North 10 mph 10 mph 90% 0.020 in 0.00 W/m2
18:34 44.0 °F 41.0 °F 30.0 in North 6 mph 10 mph 90% 0.010 in 0.00 W/m2
18:39 44.0 °F 41.0 °F 30.0 in North 8 mph 10 mph 90% 0.010 in 0.00 W/m2
18:44 44.0 °F 41.0 °F 30.0 in North 6 mph 10 mph 90% 0.010 in 0.00 W/m2
18:49 44.0 °F 41.0 °F 30.0 in North 9 mph 10 mph 90% 0.010 in 0.00 W/m2
18:54 43.0 °F 41.0 °F 30.0 in North 7 mph 7 mph 90% 0.010 in 0.00 W/m2
18:59 44.0 °F 41.0 °F 30.0 in North 8 mph 8 mph 90% 0.010 in 0.00 W/m2
19:04 44.0 °F 41.0 °F 30.0 in North 9 mph 9 mph 90% 0.010 in 0.00 W/m2
19:09 44.0 °F 41.0 °F 30.0 in NNE 8 mph 9 mph 90% 0.010 in 0.00 W/m2
19:14 44.0 °F 41.0 °F 30.0 in North 5 mph 5 mph 90% 0.010 in 0.00 W/m2
19:19 44.0 °F 41.0 °F 30.0 in North 9 mph 9 mph 90% 0.010 in 0.00 W/m2
19:24 44.0 °F 41.0 °F 30.0 in North 8 mph 9 mph 89% 0.000 in 0.00 W/m2
19:29 44.0 °F 41.0 °F 30.0 in NNE 7 mph 8 mph 89% 0.000 in 0.00 W/m2
19:34 44.0 °F 41.0 °F 30.0 in North 13 mph 13 mph 89% 0.000 in 0.00 W/m2
19:39 44.0 °F 41.0 °F 30.0 in North 8 mph 13 mph 89% 0.000 in 0.00 W/m2
19:44 43.0 °F 40.0 °F 30.0 in North 11 mph 11 mph 89% 0.000 in 0.00 W/m2
19:49 43.0 °F 40.0 °F 30.0 in NNW 10 mph 11 mph 89% 0.010 in 0.00 W/m2
19:54 43.0 °F 40.0 °F 30.0 in North 9 mph 9 mph 89% 0.010 in 0.00 W/m2
19:59 44.0 °F 41.0 °F 30.1 in North 10 mph 10 mph 89% 0.010 in 0.00 W/m2
20:04 44.0 °F 41.0 °F 30.1 in North 11 mph 11 mph 89% 0.010 in 0.00 W/m2
20:09 44.0 °F 41.0 °F 30.1 in North 11 mph 11 mph 89% 0.010 in 0.00 W/m2
20:14 44.0 °F 41.0 °F 30.1 in North 13 mph 14 mph 89% 0.010 in 0.00 W/m2
20:19 43.0 °F 40.0 °F 30.1 in North 10 mph 14 mph 89% 0.010 in 0.00 W/m2
20:24 43.0 °F 40.0 °F 30.1 in North 9 mph 11 mph 89% 0.010 in 0.00 W/m2
20:29 43.0 °F 40.0 °F 30.1 in NNE 12 mph 13 mph 89% 0.010 in 0.00 W/m2
20:34 44.0 °F 41.0 °F 30.1 in North 10 mph 10 mph 89% 0.010 in 0.00 W/m2
20:39 44.0 °F 41.0 °F 30.1 in North 5 mph 11 mph 89% 0.010 in 0.00 W/m2
20:44 44.0 °F 41.0 °F 30.1 in North 13 mph 13 mph 89% 0.010 in 0.00 W/m2
20:49 44.0 °F 41.0 °F 30.1 in North 13 mph 16 mph 89% 0.010 in 0.00 W/m2
20:54 44.0 °F 40.0 °F 30.1 in North 12 mph 13 mph 88% 0.000 in 0.00 W/m2
20:59 43.0 °F 40.0 °F 30.1 in North 14 mph 14 mph 88% 0.000 in 0.00 W/m2
21:04 43.0 °F 40.0 °F 30.1 in NNE 14 mph 15 mph 88% 0.000 in 0.00 W/m2
21:09 43.0 °F 40.0 °F 30.1 in North 14 mph 15 mph 88% 0.000 in 0.00 W/m2
21:14 43.0 °F 40.0 °F 30.1 in North 11 mph 12 mph 88% 0.000 in 0.00 W/m2
21:19 43.0 °F 40.0 °F 30.1 in NNE 14 mph 14 mph 88% 0.000 in 0.00 W/m2
21:24 43.0 °F 40.0 °F 30.1 in North 14 mph 14 mph 87% 0.000 in 0.00 W/m2
21:29 43.0 °F 40.0 °F 30.1 in NNE 10 mph 10 mph 87% 0.000 in 0.00 W/m2
21:34 43.0 °F 40.0 °F 30.1 in NNE 9 mph 10 mph 87% 0.000 in 0.00 W/m2
21:39 43.0 °F 40.0 °F 30.1 in North 8 mph 9 mph 87% 0.000 in 0.00 W/m2
21:44 43.0 °F 40.0 °F 30.1 in North 8 mph 8 mph 87% 0.000 in 0.00 W/m2
21:49 43.0 °F 40.0 °F 30.1 in North 10 mph 10 mph 87% 0.000 in 0.00 W/m2
21:54 44.0 °F 40.0 °F 30.1 in NNW 9 mph 9 mph 87% 0.000 in 0.00 W/m2
21:59 44.0 °F 40.0 °F 30.1 in NNW 12 mph 12 mph 87% 0.000 in 0.00 W/m2
22:04 44.0 °F 40.0 °F 30.1 in North 12 mph 13 mph 87% 0.000 in 0.00 W/m2
22:09 43.0 °F 40.0 °F 30.1 in North 11 mph 14 mph 87% 0.000 in 0.00 W/m2
22:14 43.0 °F 40.0 °F 30.1 in North 12 mph 12 mph 87% 0.000 in 0.00 W/m2
22:19 43.0 °F 40.0 °F 30.1 in NNW 12 mph 13 mph 87% 0.000 in 0.00 W/m2
22:24 43.0 °F 40.0 °F 30.1 in North 16 mph 16 mph 87% 0.000 in 0.00 W/m2
22:29 43.0 °F 40.0 °F 30.1 in North 12 mph 14 mph 87% 0.000 in 0.00 W/m2
22:34 43.0 °F 40.0 °F 30.1 in North 15 mph 15 mph 87% 0.000 in 0.00 W/m2
22:39 43.0 °F 40.0 °F 30.1 in North 15 mph 15 mph 87% 0.000 in 0.00 W/m2
22:44 43.0 °F 40.0 °F 30.1 in North 9 mph 11 mph 87% 0.000 in 0.00 W/m2
22:49 43.0 °F 39.0 °F 30.1 in North 12 mph 13 mph 87% 0.000 in 0.00 W/m2
22:54 43.0 °F 39.0 °F 30.1 in North 13 mph 14 mph 87% 0.000 in 0.00 W/m2
22:59 43.0 °F 39.0 °F 30.1 in North 14 mph 14 mph 87% 0.000 in 0.00 W/m2
23:04 43.0 °F 39.0 °F 30.1 in North 11 mph 11 mph 87% 0.000 in 0.00 W/m2
23:09 43.0 °F 39.0 °F 30.1 in North 15 mph 16 mph 87% 0.000 in 0.00 W/m2
23:14 43.0 °F 39.0 °F 30.1 in NNE 16 mph 16 mph 87% 0.000 in 0.00 W/m2
23:19 43.0 °F 39.0 °F 30.1 in North 11 mph 16 mph 87% 0.000 in 0.00 W/m2
23:24 43.0 °F 39.0 °F 30.1 in North 11 mph 15 mph 87% 0.000 in 0.00 W/m2
23:29 43.0 °F 39.0 °F 30.1 in North 8 mph 15 mph 87% 0.000 in 0.00 W/m2
23:34 43.0 °F 39.0 °F 30.1 in North 10 mph 12 mph 87% 0.000 in 0.00 W/m2
23:39 43.0 °F 39.0 °F 30.1 in North 12 mph 12 mph 87% 0.000 in 0.00 W/m2
23:44 43.0 °F 39.0 °F 30.1 in North 14 mph 14 mph 87% 0.000 in 0.00 W/m2
23:49 43.0 °F 39.0 °F 30.1 in North 18 mph 18 mph 87% 0.000 in 0.00 W/m2
23:54 43.0 °F 39.0 °F 30.1 in NNE 14 mph 14 mph 87% 0.000 in 0.00 W/m2
23:59 43.0 °F 39.0 °F 30.1 in North 14 mph 14 mph 87% 0.000 in 0.00 W/m2
Villages of Bridgestone, Spring, TX USA
Compliments of Weather Underground - 4 mb